Terminal Aerodrome Forecast
Issued by NWS

Home | Current Version | Previous Version | Text Only | Print | Product List | Glossary On
Versions: 1 2 3 4 5 6 7 8 9 10 11 12 13 14 15 16 17 18 19 20 21 22 23 24 25 26 27 28 29
000
FTUS41 KCAR 310540
TAFFVE
TAF
KFVE 310540Z 3106/0106 25005KT P6SM SCT100
     FM310800 23006KT 3SM BR FEW100
     FM311200 28008KT P6SM SCT035
     FM311600 28009KT P6SM VCSH BKN040
     FM010200 32008KT P6SM BKN080=

USA.gov is the U.S. government's official web portal to all federal, state and local government web resources and services.